GRO weather

Girona Airport
Girona, Girona, Spain

Public forecast

Using degrees Celsius for public forecast. Weather courtesy of forecast.io.

METAR (pilot weather report)

Retrieved 2018/12/15 22:30 UTC (5 minutes ago):

LEGE 152230Z VRB02KT CAVOK 06/06 Q1018

TAF (pilot weather forecast)

Retrieved 2018/12/15 18:27 UTC (4 hours ago):

TAF LEGE 151700Z 1518/1618 34004KT 9999 SCT030 TX14/1613Z TN05/1606Z TEMPO 1521/1606 2000 BR BKN010 PROB40 TEMPO 1610/1616 4000 RA BKN020